sensor_id;sensor_type;location;lat;lon;timestamp;temperature;humidity
19870;DHT22;10097;50.862;4.696;2024-03-23T00:55:12;8.50;99.90
19870;DHT22;10097;50.862;4.696;2024-03-23T00:57:38;8.50;99.90
19870;DHT22;10097;50.862;4.696;2024-03-23T01:00:04;8.50;99.90
19870;DHT22;10097;50.862;4.696;2024-03-23T01:02:32;8.60;99.90
19870;DHT22;10097;50.862;4.696;2024-03-23T01:04:57;8.70;99.90
19870;DHT22;10097;50.862;4.696;2024-03-23T01:07:23;8.70;99.90
19870;DHT22;10097;50.862;4.696;2024-03-23T01:09:49;8.70;99.90
19870;DHT22;10097;50.862;4.696;2024-03-23T01:12:14;8.60;99.90
19870;DHT22;10097;50.862;4.696;2024-03-23T01:14:40;8.50;99.90
19870;DHT22;10097;50.862;4.696;2024-03-23T01:17:06;8.50;99.90
19870;DHT22;10097;50.862;4.696;2024-03-23T01:19:31;8.60;99.90
19870;DHT22;10097;50.862;4.696;2024-03-23T01:21:57;8.70;99.90
19870;DHT22;10097;50.862;4.696;2024-03-23T01:24:22;8.70;99.90
19870;DHT22;10097;50.862;4.696;2024-03-23T01:26:48;8.70;99.90
19870;DHT22;10097;50.862;4.696;2024-03-23T01:29:14;8.70;99.90
19870;DHT22;10097;50.862;4.696;2024-03-23T01:31:39;8.70;99.90
19870;DHT22;10097;50.862;4.696;2024-03-23T01:34:05;8.70;99.90
19870;DHT22;10097;50.862;4.696;2024-03-23T01:36:30;8.70;99.90
19870;DHT22;10097;50.862;4.696;2024-03-23T01:38:56;8.70;99.90
19870;DHT22;10097;50.862;4.696;2024-03-23T01:41:23;8.80;99.90
19870;DHT22;10097;50.862;4.696;2024-03-23T01:43:49;8.80;99.90
19870;DHT22;10097;50.862;4.696;2024-03-23T01:46:15;8.70;99.90
19870;DHT22;10097;50.862;4.696;2024-03-23T01:48:42;8.70;99.90
19870;DHT22;10097;50.862;4.696;2024-03-23T01:51:07;8.70;99.90
19870;DHT22;10097;50.862;4.696;2024-03-23T01:53:33;8.70;99.90
19870;DHT22;10097;50.862;4.696;2024-03-23T01:55:59;8.60;99.90
19870;DHT22;10097;50.862;4.696;2024-03-23T01:58:24;8.60;99.90
19870;DHT22;10097;50.862;4.696;2024-03-23T02:00:50;8.60;99.90
19870;DHT22;10097;50.862;4.696;2024-03-23T02:03:23;8.60;99.90
19870;DHT22;10097;50.862;4.696;2024-03-23T02:05:53;8.50;99.90
19870;DHT22;10097;50.862;4.696;2024-03-23T02:08:20;8.50;99.90
19870;DHT22;10097;50.862;4.696;2024-03-23T02:10:50;8.30;99.90
19870;DHT22;10097;50.862;4.696;2024-03-23T02:13:17;8.20;99.90
19870;DHT22;10097;50.862;4.696;2024-03-23T02:15:42;8.10;99.90
19870;DHT22;10097;50.862;4.696;2024-03-23T02:18:08;8.10;99.90
19870;DHT22;10097;50.862;4.696;2024-03-23T02:20:35;8.00;99.90
19870;DHT22;10097;50.862;4.696;2024-03-23T02:23:01;7.90;99.90
19870;DHT22;10097;50.862;4.696;2024-03-23T02:25:27;8.00;99.90
19870;DHT22;10097;50.862;4.696;2024-03-23T02:27:53;8.00;99.90
19870;DHT22;10097;50.862;4.696;2024-03-23T02:30:20;7.90;99.90
19870;DHT22;10097;50.862;4.696;2024-03-23T02:32:45;7.90;99.90
19870;DHT22;10097;50.862;4.696;2024-03-23T02:35:11;7.90;99.90
19870;DHT22;10097;50.862;4.696;2024-03-23T02:37:37;8.00;99.90
19870;DHT22;10097;50.862;4.696;2024-03-23T02:40:03;7.90;99.90
19870;DHT22;10097;50.862;4.696;2024-03-23T02:42:28;8.00;99.90
19870;DHT22;10097;50.862;4.696;2024-03-23T02:44:54;8.00;99.90
19870;DHT22;10097;50.862;4.696;2024-03-23T02:47:20;7.90;99.90
19870;DHT22;10097;50.862;4.696;2024-03-23T02:49:45;7.90;99.90
19870;DHT22;10097;50.862;4.696;2024-03-23T02:52:11;7.90;99.90
19870;DHT22;10097;50.862;4.696;2024-03-23T02:54:36;7.80;99.90
19870;DHT22;10097;50.862;4.696;2024-03-23T02:57:02;7.80;99.90
19870;DHT22;10097;50.862;4.696;2024-03-23T02:59:28;7.90;99.90
19870;DHT22;10097;50.862;4.696;2024-03-23T03:01:53;7.90;99.90
19870;DHT22;10097;50.862;4.696;2024-03-23T03:04:19;8.00;99.90
19870;DHT22;10097;50.862;4.696;2024-03-23T03:06:49;8.10;99.90
19870;DHT22;10097;50.862;4.696;2024-03-23T03:09:14;8.10;99.90
19870;DHT22;10097;50.862;4.696;2024-03-23T03:11:40;8.20;99.90
19870;DHT22;10097;50.862;4.696;2024-03-23T03:14:06;8.20;99.90
19870;DHT22;10097;50.862;4.696;2024-03-23T03:16:33;8.20;99.90
19870;DHT22;10097;50.862;4.696;2024-03-23T03:18:59;8.20;99.90
19870;DHT22;10097;50.862;4.696;2024-03-23T03:21:24;8.10;99.90
19870;DHT22;10097;50.862;4.696;2024-03-23T03:23:50;8.20;99.90
19870;DHT22;10097;50.862;4.696;2024-03-23T03:26:16;8.20;99.90
19870;DHT22;10097;50.862;4.696;2024-03-23T03:28:42;8.20;99.90
19870;DHT22;10097;50.862;4.696;2024-03-23T03:31:09;8.10;99.90
19870;DHT22;10097;50.862;4.696;2024-03-23T03:33:35;8.10;99.90
19870;DHT22;10097;50.862;4.696;2024-03-23T03:36:00;8.10;99.90
19870;DHT22;10097;50.862;4.696;2024-03-23T03:38:26;8.10;99.90
19870;DHT22;10097;50.862;4.696;2024-03-23T03:40:51;8.10;99.90
19870;DHT22;10097;50.862;4.696;2024-03-23T03:43:18;8.10;99.90
19870;DHT22;10097;50.862;4.696;2024-03-23T03:45:54;8.00;99.90
19870;DHT22;10097;50.862;4.696;2024-03-23T03:48:20;8.00;99.90
19870;DHT22;10097;50.862;4.696;2024-03-23T03:50:46;8.00;99.90
19870;DHT22;10097;50.862;4.696;2024-03-23T03:53:11;8.00;99.90
19870;DHT22;10097;50.862;4.696;2024-03-23T03:55:37;8.00;99.90
19870;DHT22;10097;50.862;4.696;2024-03-23T03:58:02;8.00;99.90
19870;DHT22;10097;50.862;4.696;2024-03-23T04:00:28;7.90;99.90
19870;DHT22;10097;50.862;4.696;2024-03-23T04:02:54;7.80;99.90
19870;DHT22;10097;50.862;4.696;2024-03-23T04:05:20;7.80;99.90
19870;DHT22;10097;50.862;4.696;2024-03-23T04:07:45;7.70;99.90
19870;DHT22;10097;50.862;4.696;2024-03-23T04:10:11;7.70;99.90
19870;DHT22;10097;50.862;4.696;2024-03-23T04:12:37;7.70;99.90
19870;DHT22;10097;50.862;4.696;2024-03-23T04:15:03;7.70;99.90
19870;DHT22;10097;50.862;4.696;2024-03-23T04:17:30;7.60;99.90
19870;DHT22;10097;50.862;4.696;2024-03-23T04:20:00;7.50;99.90
19870;DHT22;10097;50.862;4.696;2024-03-23T04:22:27;7.60;99.90
19870;DHT22;10097;50.862;4.696;2024-03-23T04:24:58;7.60;99.90
19870;DHT22;10097;50.862;4.696;2024-03-23T04:27:24;7.60;99.90
19870;DHT22;10097;50.862;4.696;2024-03-23T04:29:50;7.60;99.90
19870;DHT22;10097;50.862;4.696;2024-03-23T04:32:17;7.70;99.90
19870;DHT22;10097;50.862;4.696;2024-03-23T04:34:43;7.70;99.90
19870;DHT22;10097;50.862;4.696;2024-03-23T04:37:09;7.70;99.90
19870;DHT22;10097;50.862;4.696;2024-03-23T04:39:36;7.70;99.90
19870;DHT22;10097;50.862;4.696;2024-03-23T04:42:03;7.80;99.90
19870;DHT22;10097;50.862;4.696;2024-03-23T04:44:28;7.80;99.90
19870;DHT22;10097;50.862;4.696;2024-03-23T04:46:54;7.70;99.90
19870;DHT22;10097;50.862;4.696;2024-03-23T04:49:20;7.80;99.90
19870;DHT22;10097;50.862;4.696;2024-03-23T04:51:46;7.80;99.90
19870;DHT22;10097;50.862;4.696;2024-03-23T04:54:15;7.70;99.90
19870;DHT22;10097;50.862;4.696;2024-03-23T04:56:41;7.70;99.90
19870;DHT22;10097;50.862;4.696;2024-03-23T04:59:07;7.70;99.90
19870;DHT22;10097;50.862;4.696;2024-03-23T05:01:33;7.80;99.90
19870;DHT22;10097;50.862;4.696;2024-03-23T05:03:59;7.80;99.90
19870;DHT22;10097;50.862;4.696;2024-03-23T05:06:25;7.90;99.90
19870;DHT22;10097;50.862;4.696;2024-03-23T05:08:51;7.90;99.90
19870;DHT22;10097;50.862;4.696;2024-03-23T05:11:17;7.90;99.90
19870;DHT22;10097;50.862;4.696;2024-03-23T05:13:43;8.00;99.90
19870;DHT22;10097;50.862;4.696;2024-03-23T05:16:09;7.90;99.90
19870;DHT22;10097;50.862;4.696;2024-03-23T05:18:38;7.90;99.90
19870;DHT22;10097;50.862;4.696;2024-03-23T05:21:03;7.80;99.90
19870;DHT22;10097;50.862;4.696;2024-03-23T05:23:29;7.70;99.90
19870;DHT22;10097;50.862;4.696;2024-03-23T05:25:55;7.60;99.90
19870;DHT22;10097;50.862;4.696;2024-03-23T05:28:22;7.40;99.90
19870;DHT22;10097;50.862;4.696;2024-03-23T05:30:54;7.40;99.90
19870;DHT22;10097;50.862;4.696;2024-03-23T05:33:20;7.30;99.90
19870;DHT22;10097;50.862;4.696;2024-03-23T05:35:46;7.20;99.90
19870;DHT22;10097;50.862;4.696;2024-03-23T05:38:13;7.30;99.90
19870;DHT22;10097;50.862;4.696;2024-03-23T05:40:39;7.20;99.90
19870;DHT22;10097;50.862;4.696;2024-03-23T05:43:08;7.10;99.90
19870;DHT22;10097;50.862;4.696;2024-03-23T05:45:34;7.20;99.90
19870;DHT22;10097;50.862;4.696;2024-03-23T05:48:00;7.20;99.90
19870;DHT22;10097;50.862;4.696;2024-03-23T05:50:26;7.20;99.90
19870;DHT22;10097;50.862;4.696;2024-03-23T05:52:52;7.10;99.90
19870;DHT22;10097;50.862;4.696;2024-03-23T05:55:17;7.10;99.90
19870;DHT22;10097;50.862;4.696;2024-03-23T05:57:43;7.20;99.90
19870;DHT22;10097;50.862;4.696;2024-03-23T06:00:09;7.20;99.90
19870;DHT22;10097;50.862;4.696;2024-03-23T06:02:44;7.30;99.90
19870;DHT22;10097;50.862;4.696;2024-03-23T06:05:11;7.20;99.90
19870;DHT22;10097;50.862;4.696;2024-03-23T06:07:37;7.30;99.90
19870;DHT22;10097;50.862;4.696;2024-03-23T06:10:03;7.40;99.90
19870;DHT22;10097;50.862;4.696;2024-03-23T06:12:29;7.60;99.90
19870;DHT22;10097;50.862;4.696;2024-03-23T06:14:54;7.70;99.90
19870;DHT22;10097;50.862;4.696;2024-03-23T06:17:20;7.70;99.90
19870;DHT22;10097;50.862;4.696;2024-03-23T06:19:46;7.70;99.90
19870;DHT22;10097;50.862;4.696;2024-03-23T06:22:12;7.80;99.90
19870;DHT22;10097;50.862;4.696;2024-03-23T06:24:37;7.80;99.90
19870;DHT22;10097;50.862;4.696;2024-03-23T06:27:03;7.90;99.90
19870;DHT22;10097;50.862;4.696;2024-03-23T06:29:29;7.90;99.90
19870;DHT22;10097;50.862;4.696;2024-03-23T06:31:55;7.90;99.90
19870;DHT22;10097;50.862;4.696;2024-03-23T06:34:21;7.90;99.90
19870;DHT22;10097;50.862;4.696;2024-03-23T06:36:48;8.00;99.90
19870;DHT22;10097;50.862;4.696;2024-03-23T06:39:14;8.00;99.90
19870;DHT22;10097;50.862;4.696;2024-03-23T06:41:42;8.10;99.90
19870;DHT22;10097;50.862;4.696;2024-03-23T06:44:08;8.10;99.90
19870;DHT22;10097;50.862;4.696;2024-03-23T06:46:34;8.10;99.90
19870;DHT22;10097;50.862;4.696;2024-03-23T06:48:59;8.10;99.90
19870;DHT22;10097;50.862;4.696;2024-03-23T06:51:25;8.10;99.90
19870;DHT22;10097;50.862;4.696;2024-03-23T06:53:51;8.10;99.90
19870;DHT22;10097;50.862;4.696;2024-03-23T06:56:16;8.10;99.90
19870;DHT22;10097;50.862;4.696;2024-03-23T06:58:42;8.10;99.90
19870;DHT22;10097;50.862;4.696;2024-03-23T07:01:08;8.00;99.90
19870;DHT22;10097;50.862;4.696;2024-03-23T07:03:33;8.00;99.90
19870;DHT22;10097;50.862;4.696;2024-03-23T07:05:59;8.00;99.90
19870;DHT22;10097;50.862;4.696;2024-03-23T07:08:24;8.00;99.90
19870;DHT22;10097;50.862;4.696;2024-03-23T07:10:50;8.10;99.90
19870;DHT22;10097;50.862;4.696;2024-03-23T07:13:16;8.20;99.90
19870;DHT22;10097;50.862;4.696;2024-03-23T07:15:42;8.30;99.90
19870;DHT22;10097;50.862;4.696;2024-03-23T07:18:08;8.30;99.90
19870;DHT22;10097;50.862;4.696;2024-03-23T07:20:34;8.30;99.90
19870;DHT22;10097;50.862;4.696;2024-03-23T07:23:00;8.40;99.90
19870;DHT22;10097;50.862;4.696;2024-03-23T07:25:25;8.50;99.90
19870;DHT22;10097;50.862;4.696;2024-03-23T07:27:53;8.70;99.90
19870;DHT22;10097;50.862;4.696;2024-03-23T07:30:19;8.60;99.90
19870;DHT22;10097;50.862;4.696;2024-03-23T07:32:45;8.40;99.90
19870;DHT22;10097;50.862;4.696;2024-03-23T07:35:10;8.20;99.90
19870;DHT22;10097;50.862;4.696;2024-03-23T07:37:36;7.90;99.90
19870;DHT22;10097;50.862;4.696;2024-03-23T07:40:02;7.60;99.90
19870;DHT22;10097;50.862;4.696;2024-03-23T07:42:28;7.40;99.90
19870;DHT22;10097;50.862;4.696;2024-03-23T07:44:54;7.30;99.90
19870;DHT22;10097;50.862;4.696;2024-03-23T07:47:22;7.20;99.90
19870;DHT22;10097;50.862;4.696;2024-03-23T07:49:48;7.20;99.90
19870;DHT22;10097;50.862;4.696;2024-03-23T07:52:14;7.20;99.90
19870;DHT22;10097;50.862;4.696;2024-03-23T07:54:39;7.10;99.90
19870;DHT22;10097;50.862;4.696;2024-03-23T07:57:05;7.00;99.90
19870;DHT22;10097;50.862;4.696;2024-03-23T07:59:32;6.90;99.90
19870;DHT22;10097;50.862;4.696;2024-03-23T08:01:59;6.90;99.90
19870;DHT22;10097;50.862;4.696;2024-03-23T08:04:26;7.00;99.90
19870;DHT22;10097;50.862;4.696;2024-03-23T08:06:52;7.10;99.90
19870;DHT22;10097;50.862;4.696;2024-03-23T08:09:17;7.20;99.90
19870;DHT22;10097;50.862;4.696;2024-03-23T08:11:44;7.20;99.90
19870;DHT22;10097;50.862;4.696;2024-03-23T08:14:11;7.20;99.90
19870;DHT22;10097;50.862;4.696;2024-03-23T08:16:38;7.30;99.90
19870;DHT22;10097;50.862;4.696;2024-03-23T08:19:03;7.30;99.90
19870;DHT22;10097;50.862;4.696;2024-03-23T08:21:30;7.30;99.90
19870;DHT22;10097;50.862;4.696;2024-03-23T08:23:56;7.40;99.90
19870;DHT22;10097;50.862;4.696;2024-03-23T08:26:21;7.50;99.90
19870;DHT22;10097;50.862;4.696;2024-03-23T08:28:47;7.70;99.90
19870;DHT22;10097;50.862;4.696;2024-03-23T08:31:14;8.00;99.90
19870;DHT22;10097;50.862;4.696;2024-03-23T08:33:42;8.30;99.90
19870;DHT22;10097;50.862;4.696;2024-03-23T08:36:09;8.50;99.90
19870;DHT22;10097;50.862;4.696;2024-03-23T08:38:38;8.70;99.90
19870;DHT22;10097;50.862;4.696;2024-03-23T08:41:08;8.80;99.90
19870;DHT22;10097;50.862;4.696;2024-03-23T08:43:38;8.70;99.90
19870;DHT22;10097;50.862;4.696;2024-03-23T08:46:12;8.70;99.90
19870;DHT22;10097;50.862;4.696;2024-03-23T08:48:43;8.70;99.90
19870;DHT22;10097;50.862;4.696;2024-03-23T08:51:10;8.80;99.90
19870;DHT22;10097;50.862;4.696;2024-03-23T08:53:36;8.90;99.90
19870;DHT22;10097;50.862;4.696;2024-03-23T08:56:03;9.00;99.90
19870;DHT22;10097;50.862;4.696;2024-03-23T08:58:30;9.10;99.90
19870;DHT22;10097;50.862;4.696;2024-03-23T09:01:03;9.40;99.90
19870;DHT22;10097;50.862;4.696;2024-03-23T09:03:29;9.50;99.90
19870;DHT22;10097;50.862;4.696;2024-03-23T09:05:54;9.40;99.90
19870;DHT22;10097;50.862;4.696;2024-03-23T09:08:21;9.40;99.90
19870;DHT22;10097;50.862;4.696;2024-03-23T09:10:47;9.60;99.90
19870;DHT22;10097;50.862;4.696;2024-03-23T09:13:13;9.60;99.90
19870;DHT22;10097;50.862;4.696;2024-03-23T09:15:46;9.40;99.90
19870;DHT22;10097;50.862;4.696;2024-03-23T09:18:12;9.30;99.90
19870;DHT22;10097;50.862;4.696;2024-03-23T09:20:38;9.40;99.90
19870;DHT22;10097;50.862;4.696;2024-03-23T09:23:04;9.30;99.90
19870;DHT22;10097;50.862;4.696;2024-03-23T09:25:30;9.30;99.90
19870;DHT22;10097;50.862;4.696;2024-03-23T09:27:55;9.40;99.90
19870;DHT22;10097;50.862;4.696;2024-03-23T09:30:21;9.70;99.90
19870;DHT22;10097;50.862;4.696;2024-03-23T09:32:47;9.60;99.90
19870;DHT22;10097;50.862;4.696;2024-03-23T09:35:12;9.70;99.90
19870;DHT22;10097;50.862;4.696;2024-03-23T09:37:41;9.80;99.90
19870;DHT22;10097;50.862;4.696;2024-03-23T09:40:10;9.70;99.90
19870;DHT22;10097;50.862;4.696;2024-03-23T09:42:36;9.80;99.90
19870;DHT22;10097;50.862;4.696;2024-03-23T09:45:02;9.80;99.90
19870;DHT22;10097;50.862;4.696;2024-03-23T09:47:31;9.90;99.90
19870;DHT22;10097;50.862;4.696;2024-03-23T09:49:57;9.80;99.90
19870;DHT22;10097;50.862;4.696;2024-03-23T09:52:23;9.60;99.90
19870;DHT22;10097;50.862;4.696;2024-03-23T09:54:48;9.50;99.90
19870;DHT22;10097;50.862;4.696;2024-03-23T09:57:14;9.70;99.90
19870;DHT22;10097;50.862;4.696;2024-03-23T09:59:39;9.90;99.90
19870;DHT22;10097;50.862;4.696;2024-03-23T10:02:06;10.10;99.90
19870;DHT22;10097;50.862;4.696;2024-03-23T10:04:41;10.20;99.90
19870;DHT22;10097;50.862;4.696;2024-03-23T10:07:34;9.90;99.90
19870;DHT22;10097;50.862;4.696;2024-03-23T10:10:10;9.80;99.90
19870;DHT22;10097;50.862;4.696;2024-03-23T10:12:47;9.90;99.90
19870;DHT22;10097;50.862;4.696;2024-03-23T10:15:24;10.00;99.90
19870;DHT22;10097;50.862;4.696;2024-03-23T10:17:50;10.20;99.90
19870;DHT22;10097;50.862;4.696;2024-03-23T10:20:22;10.40;99.90
19870;DHT22;10097;50.862;4.696;2024-03-23T10:22:49;10.70;99.90
19870;DHT22;10097;50.862;4.696;2024-03-23T10:25:15;10.80;99.90
19870;DHT22;10097;50.862;4.696;2024-03-23T10:27:41;10.70;99.90
19870;DHT22;10097;50.862;4.696;2024-03-23T10:30:13;10.50;99.90
19870;DHT22;10097;50.862;4.696;2024-03-23T10:32:42;10.40;99.90
19870;DHT22;10097;50.862;4.696;2024-03-23T10:35:18;10.40;99.90
19870;DHT22;10097;50.862;4.696;2024-03-23T10:37:49;10.40;99.90
19870;DHT22;10097;50.862;4.696;2024-03-23T10:40:17;10.20;99.90
19870;DHT22;10097;50.862;4.696;2024-03-23T10:42:44;9.80;99.90
19870;DHT22;10097;50.862;4.696;2024-03-23T10:45:10;9.80;99.90
19870;DHT22;10097;50.862;4.696;2024-03-23T10:47:37;9.70;99.90
19870;DHT22;10097;50.862;4.696;2024-03-23T10:50:04;10.00;99.90
19870;DHT22;10097;50.862;4.696;2024-03-23T10:52:33;10.20;99.90
19870;DHT22;10097;50.862;4.696;2024-03-23T10:55:04;10.60;99.90
19870;DHT22;10097;50.862;4.696;2024-03-23T10:57:42;10.60;99.90
19870;DHT22;10097;50.862;4.696;2024-03-23T11:00:10;10.40;99.90
19870;DHT22;10097;50.862;4.696;2024-03-23T11:02:36;10.30;99.90
19870;DHT22;10097;50.862;4.696;2024-03-23T11:05:01;10.40;99.90
19870;DHT22;10097;50.862;4.696;2024-03-23T11:09:54;10.60;99.90
19870;DHT22;10097;50.862;4.696;2024-03-23T11:15:04;10.60;99.90
19870;DHT22;10097;50.862;4.696;2024-03-23T11:17:31;10.70;99.90
19870;DHT22;10097;50.862;4.696;2024-03-23T11:20:01;11.00;99.90
19870;DHT22;10097;50.862;4.696;2024-03-23T11:22:45;11.20;99.90
19870;DHT22;10097;50.862;4.696;2024-03-23T11:25:22;11.30;99.90
19870;DHT22;10097;50.862;4.696;2024-03-23T11:27:53;11.20;99.90
19870;DHT22;10097;50.862;4.696;2024-03-23T11:30:23;11.10;99.90
19870;DHT22;10097;50.862;4.696;2024-03-23T11:32:50;11.40;99.90
19870;DHT22;10097;50.862;4.696;2024-03-23T11:35:36;11.50;99.90
19870;DHT22;10097;50.862;4.696;2024-03-23T11:40:32;11.80;99.90
19870;DHT22;10097;50.862;4.696;2024-03-23T11:43:00;11.80;99.90
19870;DHT22;10097;50.862;4.696;2024-03-23T11:45:27;11.80;99.90
19870;DHT22;10097;50.862;4.696;2024-03-23T11:48:12;11.90;99.90
19870;DHT22;10097;50.862;4.696;2024-03-23T11:50:43;12.10;99.90
19870;DHT22;10097;50.862;4.696;2024-03-23T11:55:49;12.60;99.90
19870;DHT22;10097;50.862;4.696;2024-03-23T11:58:16;12.70;99.90
19870;DHT22;10097;50.862;4.696;2024-03-23T12:00:42;12.90;99.90
19870;DHT22;10097;50.862;4.696;2024-03-23T12:03:08;12.60;99.90
19870;DHT22;10097;50.862;4.696;2024-03-23T12:05:36;12.80;99.90
19870;DHT22;10097;50.862;4.696;2024-03-23T12:08:31;12.70;99.90
19870;DHT22;10097;50.862;4.696;2024-03-23T12:13:37;12.30;99.90
19870;DHT22;10097;50.862;4.696;2024-03-23T12:16:13;12.10;99.90
19870;DHT22;10097;50.862;4.696;2024-03-23T12:18:41;12.20;99.90
19870;DHT22;10097;50.862;4.696;2024-03-23T12:21:07;12.20;99.90
19870;DHT22;10097;50.862;4.696;2024-03-23T12:23:33;12.30;99.90
19870;DHT22;10097;50.862;4.696;2024-03-23T12:25:59;12.20;99.90
19870;DHT22;10097;50.862;4.696;2024-03-23T12:28:25;11.90;99.90
19870;DHT22;10097;50.862;4.696;2024-03-23T12:30:51;11.90;99.90
19870;DHT22;10097;50.862;4.696;2024-03-23T12:36:40;11.50;99.90
19870;DHT22;10097;50.862;4.696;2024-03-23T12:39:05;11.90;99.90
19870;DHT22;10097;50.862;4.696;2024-03-23T12:41:31;12.10;99.90
19870;DHT22;10097;50.862;4.696;2024-03-23T12:43:57;12.10;99.90
19870;DHT22;10097;50.862;4.696;2024-03-23T12:46:22;12.20;99.90
19870;DHT22;10097;50.862;4.696;2024-03-23T12:48:58;11.60;99.90
19870;DHT22;10097;50.862;4.696;2024-03-23T12:51:28;10.60;99.90
19870;DHT22;10097;50.862;4.696;2024-03-23T12:53:55;9.70;99.90
19870;DHT22;10097;50.862;4.696;2024-03-23T12:56:22;9.50;99.90
19870;DHT22;10097;50.862;4.696;2024-03-23T12:58:48;9.70;99.90
19870;DHT22;10097;50.862;4.696;2024-03-23T13:01:18;10.30;99.90
19870;DHT22;10097;50.862;4.696;2024-03-23T13:03:50;10.90;99.90
19870;DHT22;10097;50.862;4.696;2024-03-23T13:06:36;11.40;99.90
19870;DHT22;10097;50.862;4.696;2024-03-23T13:09:03;12.10;99.90
19870;DHT22;10097;50.862;4.696;2024-03-23T13:11:31;12.60;99.90
19870;DHT22;10097;50.862;4.696;2024-03-23T13:13:56;13.10;99.90
19870;DHT22;10097;50.862;4.696;2024-03-23T13:16:22;13.70;99.90
19870;DHT22;10097;50.862;4.696;2024-03-23T13:18:48;13.90;99.90
19870;DHT22;10097;50.862;4.696;2024-03-23T13:21:14;13.90;99.90
19870;DHT22;10097;50.862;4.696;2024-03-23T13:26:47;14.70;99.90
19870;DHT22;10097;50.862;4.696;2024-03-23T13:29:12;14.80;99.90
19870;DHT22;10097;50.862;4.696;2024-03-23T13:31:38;14.70;99.90
19870;DHT22;10097;50.862;4.696;2024-03-23T13:34:04;15.20;99.90
19870;DHT22;10097;50.862;4.696;2024-03-23T13:36:30;15.50;99.90
19870;DHT22;10097;50.862;4.696;2024-03-23T13:38:55;15.50;99.90
19870;DHT22;10097;50.862;4.696;2024-03-23T13:41:21;14.80;99.90
19870;DHT22;10097;50.862;4.696;2024-03-23T13:43:46;14.00;99.90
19870;DHT22;10097;50.862;4.696;2024-03-23T13:46:12;13.30;99.90
19870;DHT22;10097;50.862;4.696;2024-03-23T13:48:38;12.50;99.90
19870;DHT22;10097;50.862;4.696;2024-03-23T13:51:04;12.30;99.90
19870;DHT22;10097;50.862;4.696;2024-03-23T13:53:31;11.90;99.90
19870;DHT22;10097;50.862;4.696;2024-03-23T13:55:58;11.90;99.90
19870;DHT22;10097;50.862;4.696;2024-03-23T13:58:23;12.30;99.90
19870;DHT22;10097;50.862;4.696;2024-03-23T14:00:51;12.30;99.90
19870;DHT22;10097;50.862;4.696;2024-03-23T14:03:17;12.10;99.90
19870;DHT22;10097;50.862;4.696;2024-03-23T14:05:46;11.70;99.90
19870;DHT22;10097;50.862;4.696;2024-03-23T14:08:14;11.60;99.90
19870;DHT22;10097;50.862;4.696;2024-03-23T14:10:41;11.10;99.90
19870;DHT22;10097;50.862;4.696;2024-03-23T14:13:07;10.50;99.90
19870;DHT22;10097;50.862;4.696;2024-03-23T14:15:33;9.50;99.90
19870;DHT22;10097;50.862;4.696;2024-03-23T14:17:59;9.00;99.90
19870;DHT22;10097;50.862;4.696;2024-03-23T14:20:25;8.70;99.90
19870;DHT22;10097;50.862;4.696;2024-03-23T14:22:51;8.80;99.90
19870;DHT22;10097;50.862;4.696;2024-03-23T14:25:17;8.70;99.90
19870;DHT22;10097;50.862;4.696;2024-03-23T14:27:46;8.70;99.90
19870;DHT22;10097;50.862;4.696;2024-03-23T14:30:12;8.60;99.90
19870;DHT22;10097;50.862;4.696;2024-03-23T14:32:39;8.50;99.90
19870;DHT22;10097;50.862;4.696;2024-03-23T14:35:05;8.30;99.90
19870;DHT22;10097;50.862;4.696;2024-03-23T14:37:32;8.00;99.90
19870;DHT22;10097;50.862;4.696;2024-03-23T14:39:58;7.70;99.90
19870;DHT22;10097;50.862;4.696;2024-03-23T14:42:24;7.70;99.90
19870;DHT22;10097;50.862;4.696;2024-03-23T14:44:51;7.80;99.90
19870;DHT22;10097;50.862;4.696;2024-03-23T14:47:17;8.50;99.90
19870;DHT22;10097;50.862;4.696;2024-03-23T14:49:44;9.00;99.90
19870;DHT22;10097;50.862;4.696;2024-03-23T14:52:16;9.40;99.90
19870;DHT22;10097;50.862;4.696;2024-03-23T14:54:42;9.80;99.90
19870;DHT22;10097;50.862;4.696;2024-03-23T14:57:07;10.20;99.90
19870;DHT22;10097;50.862;4.696;2024-03-23T14:59:34;10.40;99.90
19870;DHT22;10097;50.862;4.696;2024-03-23T15:02:00;10.70;99.90
19870;DHT22;10097;50.862;4.696;2024-03-23T15:04:26;10.80;99.90
19870;DHT22;10097;50.862;4.696;2024-03-23T15:06:52;11.00;99.90
19870;DHT22;10097;50.862;4.696;2024-03-23T15:09:17;11.30;99.90
19870;DHT22;10097;50.862;4.696;2024-03-23T15:11:43;11.40;99.90
19870;DHT22;10097;50.862;4.696;2024-03-23T15:14:09;11.50;99.90
19870;DHT22;10097;50.862;4.696;2024-03-23T15:16:36;11.40;99.90
19870;DHT22;10097;50.862;4.696;2024-03-23T15:19:02;11.30;99.90
19870;DHT22;10097;50.862;4.696;2024-03-23T15:21:27;11.10;99.90
19870;DHT22;10097;50.862;4.696;2024-03-23T15:23:53;10.90;99.90
19870;DHT22;10097;50.862;4.696;2024-03-23T15:26:19;10.70;99.90
19870;DHT22;10097;50.862;4.696;2024-03-23T15:28:49;10.60;99.90
19870;DHT22;10097;50.862;4.696;2024-03-23T15:31:24;10.50;99.90
19870;DHT22;10097;50.862;4.696;2024-03-23T15:33:50;10.50;99.90
19870;DHT22;10097;50.862;4.696;2024-03-23T15:36:16;10.50;99.90
19870;DHT22;10097;50.862;4.696;2024-03-23T15:38:41;10.50;99.90
19870;DHT22;10097;50.862;4.696;2024-03-23T15:41:08;10.60;99.90
19870;DHT22;10097;50.862;4.696;2024-03-23T15:43:34;10.60;99.90
19870;DHT22;10097;50.862;4.696;2024-03-23T15:46:02;10.70;99.90
19870;DHT22;10097;50.862;4.696;2024-03-23T15:48:29;10.70;99.90
19870;DHT22;10097;50.862;4.696;2024-03-23T15:50:56;10.50;99.90
19870;DHT22;10097;50.862;4.696;2024-03-23T15:53:23;10.50;99.90
19870;DHT22;10097;50.862;4.696;2024-03-23T15:56:02;10.50;99.90
19870;DHT22;10097;50.862;4.696;2024-03-23T15:58:30;10.40;99.90
19870;DHT22;10097;50.862;4.696;2024-03-23T16:01:03;10.40;99.90
19870;DHT22;10097;50.862;4.696;2024-03-23T16:03:29;10.50;99.90
19870;DHT22;10097;50.862;4.696;2024-03-23T16:06:00;10.40;99.90
19870;DHT22;10097;50.862;4.696;2024-03-23T16:08:26;10.30;99.90
19870;DHT22;10097;50.862;4.696;2024-03-23T16:10:54;10.20;99.90
19870;DHT22;10097;50.862;4.696;2024-03-23T16:13:25;10.00;99.90
19870;DHT22;10097;50.862;4.696;2024-03-23T16:15:55;10.10;99.90
19870;DHT22;10097;50.862;4.696;2024-03-23T16:18:23;10.10;99.90
19870;DHT22;10097;50.862;4.696;2024-03-23T16:20:56;10.20;99.90
19870;DHT22;10097;50.862;4.696;2024-03-23T16:23:22;10.20;99.90
19870;DHT22;10097;50.862;4.696;2024-03-23T16:25:52;10.10;99.90
19870;DHT22;10097;50.862;4.696;2024-03-23T16:28:36;10.20;99.90
19870;DHT22;10097;50.862;4.696;2024-03-23T16:31:18;10.20;99.90
19870;DHT22;10097;50.862;4.696;2024-03-23T16:33:44;10.30;99.90
19870;DHT22;10097;50.862;4.696;2024-03-23T16:36:10;10.30;99.90
19870;DHT22;10097;50.862;4.696;2024-03-23T16:38:41;10.30;99.90
19870;DHT22;10097;50.862;4.696;2024-03-23T16:41:08;10.30;99.90
19870;DHT22;10097;50.862;4.696;2024-03-23T16:43:35;10.30;99.90
19870;DHT22;10097;50.862;4.696;2024-03-23T16:46:03;10.30;99.90
19870;DHT22;10097;50.862;4.696;2024-03-23T16:48:29;10.30;99.90
19870;DHT22;10097;50.862;4.696;2024-03-23T16:50:59;10.30;99.90
19870;DHT22;10097;50.862;4.696;2024-03-23T16:53:25;10.40;99.90